Time;durP1;ratioP1;P1;durP2;ratioP2;P2;SDS_P1;SDS_P2;PMS_P1;PMS_P2;Temp;Humidity;BMP_temperature;BMP_pressure;BME280_temperature;BME280_humidity;BME280_pressure;Samples;Min_cycle;Max_cycle;Signal;HPM_P1;HPM_P2
2022/04/14 00:00:19;;;;;;;20.63;12.75;;;11.50;99.90;;;;;;4990642;28;20050;-61
2022/04/14 00:02:45;;;;;;;19.33;12.95;;;11.40;99.90;;;;;;4995337;28;23043;-59
2022/04/14 00:05:11;;;;;;;19.13;13.63;;;11.40;99.90;;;;;;4988324;28;20131;-61
2022/04/14 00:07:36;;;;;;;17.88;12.90;;;11.40;99.90;;;;;;4989434;28;20129;-59
2022/04/14 00:10:06;;;;;;;18.42;12.90;;;11.40;99.90;;;;;;4994665;28;20468;-60
2022/04/14 00:12:32;;;;;;;20.58;13.52;;;11.30;99.90;;;;;;4986763;28;20044;-59
2022/04/14 00:14:58;;;;;;;19.00;13.57;;;11.30;99.90;;;;;;4993573;28;20492;-59
2022/04/14 00:17:24;;;;;;;23.08;14.63;;;11.30;99.90;;;;;;4992576;28;20034;-59
2022/04/14 00:19:50;;;;;;;21.95;14.02;;;11.30;99.90;;;;;;4986492;28;20504;-60
2022/04/14 00:22:16;;;;;;;18.52;13.10;;;11.30;99.90;;;;;;4988332;28;20386;-58
2022/04/14 00:24:42;;;;;;;20.17;13.85;;;11.20;99.90;;;;;;4999995;28;20041;-60
2022/04/14 00:27:08;;;;;;;22.88;15.55;;;11.20;99.90;;;;;;4994108;28;20413;-59
2022/04/14 00:29:34;;;;;;;21.65;14.55;;;11.20;99.90;;;;;;4995195;28;20052;-59
2022/04/14 00:32:00;;;;;;;22.48;14.25;;;11.10;99.90;;;;;;4992006;28;20049;-59
2022/04/14 00:34:25;;;;;;;18.52;13.07;;;11.10;99.90;;;;;;4992186;28;20046;-59
2022/04/14 00:36:51;;;;;;;17.20;13.07;;;11.10;99.90;;;;;;5007489;28;20041;-59
2022/04/14 00:39:17;;;;;;;18.23;14.00;;;11.00;99.90;;;;;;4988156;28;20046;-58
2022/04/14 00:41:43;;;;;;;26.17;17.45;;;11.00;99.90;;;;;;4989946;28;20038;-60
2022/04/14 00:44:08;;;;;;;21.67;17.08;;;11.00;99.90;;;;;;4994258;28;20045;-58
2022/04/14 00:46:34;;;;;;;28.08;19.83;;;11.00;99.90;;;;;;4988644;28;20075;-60
2022/04/14 00:49:00;;;;;;;29.73;20.60;;;11.00;99.90;;;;;;4988602;28;20269;-60
2022/04/14 00:51:26;;;;;;;29.42;20.75;;;10.90;99.90;;;;;;4988947;28;20050;-58
2022/04/14 00:53:52;;;;;;;28.45;18.77;;;10.90;99.90;;;;;;4957899;28;20045;-60
2022/04/14 00:56:18;;;;;;;29.20;19.30;;;10.90;99.90;;;;;;4997315;28;20029;-59
2022/04/14 00:58:44;;;;;;;24.63;18.25;;;10.90;99.90;;;;;;4989154;28;20088;-58
2022/04/14 01:01:10;;;;;;;26.25;19.17;;;10.90;99.90;;;;;;4993974;28;20045;-60
2022/04/14 01:03:36;;;;;;;24.33;16.25;;;10.90;99.90;;;;;;4993068;28;20041;-59
2022/04/14 01:06:05;;;;;;;26.27;18.02;;;10.80;99.90;;;;;;4987931;28;20610;-60
2022/04/14 01:08:35;;;;;;;25.25;16.90;;;10.80;99.90;;;;;;4991062;28;20041;-59
2022/04/14 01:11:01;;;;;;;22.58;15.63;;;10.80;99.90;;;;;;4989160;28;20053;-60
2022/04/14 01:13:28;;;;;;;26.30;17.75;;;10.80;99.90;;;;;;4995483;28;20049;-58
2022/04/14 01:16:00;;;;;;;25.80;16.85;;;10.70;99.90;;;;;;4988087;28;20148;-59
2022/04/14 01:18:27;;;;;;;26.13;17.83;;;10.70;99.90;;;;;;4970191;28;20133;-60
2022/04/14 01:20:53;;;;;;;24.52;17.15;;;10.60;99.90;;;;;;4989979;28;20034;-59
2022/04/14 01:23:28;;;;;;;27.05;18.98;;;10.60;99.90;;;;;;5007120;22;20283;-59
2022/04/14 01:25:54;;;;;;;25.23;18.30;;;10.60;99.90;;;;;;4987752;28;20395;-61
2022/04/14 01:28:20;;;;;;;27.02;17.75;;;10.60;99.90;;;;;;4995418;28;20042;-58
2022/04/14 01:30:45;;;;;;;26.02;17.40;;;10.50;99.90;;;;;;4979616;28;20269;-59
2022/04/14 01:33:11;;;;;;;28.45;19.73;;;10.50;99.90;;;;;;4990721;28;20053;-60
2022/04/14 01:35:37;;;;;;;27.48;17.55;;;10.50;99.90;;;;;;4994709;28;21191;-60
2022/04/14 01:38:03;;;;;;;27.05;19.25;;;10.50;99.90;;;;;;4991054;28;20038;-59
2022/04/14 01:40:29;;;;;;;31.27;21.30;;;10.50;99.90;;;;;;4986514;28;20060;-60
2022/04/14 01:42:54;;;;;;;32.60;20.20;;;10.50;99.90;;;;;;4994818;28;20041;-59
2022/04/14 01:45:20;;;;;;;26.63;18.58;;;10.40;99.90;;;;;;4994233;28;20177;-59
2022/04/14 01:47:46;;;;;;;31.88;22.05;;;10.40;99.90;;;;;;4986739;28;20038;-60
2022/04/14 01:50:14;;;;;;;34.53;26.17;;;10.40;99.90;;;;;;4988211;28;20046;-59
2022/04/14 01:52:41;;;;;;;43.92;29.00;;;10.40;99.90;;;;;;4978523;28;20042;-58
2022/04/14 01:55:08;;;;;;;35.95;26.60;;;10.30;99.90;;;;;;4988934;28;20057;-60
2022/04/14 01:57:34;;;;;;;38.38;26.60;;;10.30;99.90;;;;;;4989264;28;20055;-59
2022/04/14 02:00:01;;;;;;;34.85;24.83;;;10.30;99.90;;;;;;4992312;28;20046;-60
2022/04/14 02:02:27;;;;;;;33.85;24.55;;;10.30;99.90;;;;;;4991975;28;20041;-59
2022/04/14 02:04:53;;;;;;;30.05;21.25;;;10.30;99.90;;;;;;4990724;28;20037;-60
2022/04/14 02:07:19;;;;;;;32.13;21.65;;;10.20;99.90;;;;;;4987459;28;20044;-59
2022/04/14 02:09:45;;;;;;;33.47;23.23;;;10.20;99.90;;;;;;4979502;28;20056;-60
2022/04/14 02:12:12;;;;;;;32.05;22.08;;;10.20;99.90;;;;;;4975551;28;20558;-60
2022/04/14 02:14:39;;;;;;;26.27;20.27;;;10.20;99.90;;;;;;4970164;28;20048;-58
2022/04/14 02:17:05;;;;;;;33.53;22.02;;;10.20;99.90;;;;;;4970731;28;20058;-59
2022/04/14 02:19:31;;;;;;;30.50;21.83;;;10.10;99.90;;;;;;4988909;28;20065;-58
2022/04/14 02:22:00;;;;;;;31.90;22.40;;;10.10;99.90;;;;;;4989159;28;20038;-58
2022/04/14 02:24:26;;;;;;;35.88;23.35;;;10.10;99.90;;;;;;4995491;28;20045;-59
2022/04/14 02:26:55;;;;;;;38.03;22.40;;;10.00;99.90;;;;;;4974063;28;20064;-59
2022/04/14 02:29:21;;;;;;;35.90;22.55;;;10.00;99.90;;;;;;5004146;28;20084;-58
2022/04/14 02:31:47;;;;;;;30.48;22.02;;;10.00;99.90;;;;;;4998140;28;20722;-60
2022/04/14 02:34:13;;;;;;;30.75;21.13;;;10.00;99.90;;;;;;4994566;28;20046;-60
2022/04/14 02:36:38;;;;;;;33.92;25.08;;;10.00;99.90;;;;;;4994405;28;20042;-58
2022/04/14 02:39:04;;;;;;;41.72;26.20;;;10.00;99.90;;;;;;4998829;28;20034;-60
2022/04/14 02:41:30;;;;;;;38.83;25.08;;;9.90;99.90;;;;;;4993212;28;20044;-60
2022/04/14 02:43:56;;;;;;;32.25;22.33;;;9.90;99.90;;;;;;4986990;28;20040;-60
2022/04/14 02:46:22;;;;;;;38.40;22.85;;;9.90;99.90;;;;;;4990539;28;20101;-59
2022/04/14 02:48:47;;;;;;;36.05;23.90;;;9.90;99.90;;;;;;4992214;28;20157;-59
2022/04/14 02:51:13;;;;;;;42.00;25.00;;;9.90;99.90;;;;;;4997790;28;20512;-61
2022/04/14 02:53:39;;;;;;;40.47;28.63;;;9.90;99.90;;;;;;4987775;28;20128;-59
2022/04/14 02:56:09;;;;;;;34.97;23.90;;;9.90;99.90;;;;;;5004801;28;20184;-59
2022/04/14 02:58:37;;;;;;;40.25;27.90;;;9.90;99.90;;;;;;4996255;28;20050;-60
2022/04/14 03:01:03;;;;;;;37.65;25.38;;;9.90;99.90;;;;;;4980167;28;20120;-61
2022/04/14 03:03:29;;;;;;;35.70;24.85;;;9.90;99.90;;;;;;4994561;28;20040;-58
2022/04/14 03:05:55;;;;;;;36.20;27.25;;;9.90;99.90;;;;;;4973299;28;20397;-59
2022/04/14 03:08:20;;;;;;;35.05;25.05;;;9.90;99.90;;;;;;4996816;28;20033;-59
2022/04/14 03:10:46;;;;;;;39.70;27.27;;;9.90;99.90;;;;;;4982653;28;20144;-60
2022/04/14 03:13:12;;;;;;;44.40;27.67;;;9.90;99.90;;;;;;4986533;28;20050;-60
2022/04/14 03:15:38;;;;;;;38.80;26.58;;;9.90;99.90;;;;;;4991638;28;20045;-58
2022/04/14 03:18:04;;;;;;;35.13;24.58;;;9.90;99.90;;;;;;4995826;28;20066;-59
2022/04/14 03:20:29;;;;;;;40.50;27.75;;;9.90;99.90;;;;;;4971403;28;20035;-59
2022/04/14 03:22:56;;;;;;;41.28;27.67;;;10.00;99.90;;;;;;4977569;28;20150;-59
2022/04/14 03:25:21;;;;;;;47.47;29.25;;;10.00;99.90;;;;;;4992717;28;20042;-60
2022/04/14 03:27:47;;;;;;;54.80;29.55;;;9.90;99.90;;;;;;4990855;28;20064;-59
2022/04/14 03:30:13;;;;;;;36.15;24.65;;;9.90;99.90;;;;;;4991835;28;20038;-60
2022/04/14 03:32:43;;;;;;;43.22;28.83;;;9.90;99.90;;;;;;4994329;28;20040;-61
2022/04/14 03:35:10;;;;;;;39.25;27.55;;;9.90;99.90;;;;;;4999428;28;20062;-61
2022/04/14 03:37:36;;;;;;;46.22;27.50;;;9.90;99.90;;;;;;4989090;28;20070;-60
2022/04/14 03:40:03;;;;;;;49.95;30.00;;;9.90;99.90;;;;;;4989811;28;20134;-60
2022/04/14 03:42:28;;;;;;;41.10;26.20;;;9.90;99.90;;;;;;4985114;28;20503;-59
2022/04/14 03:44:54;;;;;;;50.67;29.15;;;9.90;99.90;;;;;;4986666;28;20213;-59
2022/04/14 03:47:20;;;;;;;34.25;24.65;;;9.80;99.90;;;;;;4994445;28;20046;-59
2022/04/14 03:49:45;;;;;;;36.40;25.13;;;9.80;99.90;;;;;;4989336;28;20073;-60
2022/04/14 03:52:11;;;;;;;37.65;25.25;;;9.80;99.90;;;;;;4986747;28;20204;-60
2022/04/14 03:54:37;;;;;;;46.15;29.35;;;9.80;99.90;;;;;;4953704;28;20116;-60
2022/04/14 03:57:02;;;;;;;42.15;27.58;;;9.70;99.90;;;;;;4976359;28;20038;-61
2022/04/14 03:59:28;;;;;;;46.28;29.85;;;9.70;99.90;;;;;;4988623;28;20606;-60
2022/04/14 04:01:54;;;;;;;47.00;31.02;;;9.70;99.90;;;;;;4971322;28;20072;-60
2022/04/14 04:04:19;;;;;;;45.30;28.02;;;9.70;99.90;;;;;;4988087;28;20034;-59
2022/04/14 04:06:45;;;;;;;37.47;26.42;;;9.70;99.90;;;;;;4991771;28;20129;-60
2022/04/14 04:09:12;;;;;;;45.78;29.05;;;9.70;99.90;;;;;;4993813;28;20562;-59
2022/04/14 04:11:38;;;;;;;41.28;27.73;;;9.70;99.90;;;;;;4971122;28;20057;-59
2022/04/14 04:14:04;;;;;;;46.33;30.63;;;9.70;99.90;;;;;;4971765;28;20050;-59
2022/04/14 04:16:30;;;;;;;34.33;24.13;;;9.70;99.90;;;;;;4987938;28;20492;-60
2022/04/14 04:18:55;;;;;;;48.42;30.40;;;9.60;99.90;;;;;;4988596;28;20030;-60
2022/04/14 04:21:21;;;;;;;46.60;30.23;;;9.60;99.90;;;;;;4993316;28;20399;-61
2022/04/14 04:23:47;;;;;;;44.28;30.42;;;9.60;99.90;;;;;;4993926;28;20485;-60
2022/04/14 04:26:13;;;;;;;37.30;26.27;;;9.60;99.90;;;;;;5000113;28;20476;-58
2022/04/14 04:28:38;;;;;;;36.80;28.80;;;9.50;99.90;;;;;;4973310;28;20137;-60
2022/04/14 04:31:04;;;;;;;43.78;30.23;;;9.50;99.90;;;;;;4982623;28;20069;-60
2022/04/14 04:33:30;;;;;;;49.45;31.90;;;9.50;99.90;;;;;;4970335;28;20514;-60
2022/04/14 04:35:55;;;;;;;49.95;33.85;;;9.40;99.90;;;;;;4992239;28;20137;-59
2022/04/14 04:38:21;;;;;;;50.63;33.85;;;9.40;99.90;;;;;;4991367;28;20435;-59
2022/04/14 04:40:47;;;;;;;46.90;31.02;;;9.40;99.90;;;;;;4983153;28;20043;-61
2022/04/14 04:43:15;;;;;;;37.15;25.67;;;9.40;99.90;;;;;;4993371;28;20048;-60
2022/04/14 04:45:42;;;;;;;46.70;29.90;;;9.30;99.90;;;;;;5007404;28;20046;-60
2022/04/14 04:48:08;;;;;;;51.85;33.03;;;9.30;99.90;;;;;;5004250;28;20464;-60
2022/04/14 04:50:34;;;;;;;46.53;31.02;;;9.30;99.90;;;;;;5003813;28;20073;-60
2022/04/14 04:52:59;;;;;;;42.55;31.38;;;9.30;99.90;;;;;;4986978;28;20168;-59
2022/04/14 04:55:25;;;;;;;44.33;30.13;;;9.30;99.90;;;;;;4983238;28;20488;-59
2022/04/14 04:57:51;;;;;;;43.22;31.55;;;9.20;99.90;;;;;;4972866;28;20041;-60
2022/04/14 05:00:17;;;;;;;49.50;33.13;;;9.20;99.90;;;;;;4981113;28;20039;-59
2022/04/14 05:02:43;;;;;;;49.47;33.45;;;9.20;99.90;;;;;;4974193;28;20050;-59
2022/04/14 05:05:09;;;;;;;42.35;28.90;;;9.20;99.90;;;;;;4984071;28;20295;-60
2022/04/14 05:07:34;;;;;;;47.22;32.17;;;9.20;99.90;;;;;;4982787;28;20381;-58
2022/04/14 05:10:00;;;;;;;56.60;35.92;;;9.20;99.90;;;;;;4982552;28;20061;-60
2022/04/14 05:12:26;;;;;;;49.78;32.60;;;9.20;99.90;;;;;;4988853;28;20389;-60
2022/04/14 05:14:52;;;;;;;47.83;31.92;;;9.20;99.90;;;;;;4983002;28;20088;-60
2022/04/14 05:17:18;;;;;;;51.95;36.42;;;9.20;99.90;;;;;;4985483;28;20157;-59
2022/04/14 05:19:44;;;;;;;58.42;38.88;;;9.20;99.90;;;;;;4987346;28;20056;-60
2022/04/14 05:22:10;;;;;;;64.75;40.47;;;9.20;99.90;;;;;;4986061;28;20528;-60
2022/04/14 05:24:36;;;;;;;68.28;45.20;;;9.20;99.90;;;;;;4985161;28;20044;-60
2022/04/14 05:27:02;;;;;;;65.55;44.03;;;9.20;99.90;;;;;;4983289;28;20457;-60
2022/04/14 05:29:27;;;;;;;73.00;45.67;;;9.20;99.90;;;;;;4992976;28;20076;-60
2022/04/14 05:31:53;;;;;;;59.35;41.10;;;9.20;99.90;;;;;;4970503;28;20057;-59
2022/04/14 05:34:19;;;;;;;66.47;40.28;;;9.20;99.90;;;;;;4998847;28;20046;-58
2022/04/14 05:36:44;;;;;;;62.58;39.38;;;9.30;99.90;;;;;;5002175;28;20373;-60
2022/04/14 05:39:10;;;;;;;55.85;37.58;;;9.30;99.90;;;;;;4968881;28;20481;-60
2022/04/14 05:41:36;;;;;;;51.40;36.05;;;9.30;99.90;;;;;;4976363;28;20127;-60
2022/04/14 05:44:02;;;;;;;47.30;34.30;;;9.30;99.90;;;;;;4985931;28;20038;-59
2022/04/14 05:46:27;;;;;;;64.82;42.22;;;9.40;99.90;;;;;;4984277;28;20042;-59
2022/04/14 05:48:53;;;;;;;59.03;39.42;;;9.40;99.90;;;;;;4971827;28;20192;-59
2022/04/14 05:51:21;;;;;;;58.80;36.15;;;9.40;99.90;;;;;;4984805;28;20405;-59
2022/04/14 05:53:51;;;;;;;55.78;35.85;;;9.50;99.90;;;;;;4982759;28;20509;-60
2022/04/14 05:56:17;;;;;;;50.53;34.53;;;9.50;99.90;;;;;;4975172;28;20531;-60
2022/04/14 05:58:43;;;;;;;62.90;37.65;;;9.60;99.90;;;;;;4985506;28;20125;-59
2022/04/14 06:01:09;;;;;;;53.05;34.60;;;9.60;99.90;;;;;;4989308;28;20045;-59
2022/04/14 06:03:35;;;;;;;58.65;37.90;;;9.70;99.90;;;;;;4980920;28;20074;-60
2022/04/14 06:06:01;;;;;;;54.05;35.85;;;9.70;99.90;;;;;;4987203;28;20527;-58
2022/04/14 06:08:27;;;;;;;53.10;35.70;;;9.80;99.90;;;;;;4992148;28;20042;-60
2022/04/14 06:10:53;;;;;;;48.42;31.35;;;9.90;99.90;;;;;;4986651;28;20076;-58
2022/04/14 06:13:19;;;;;;;52.28;34.13;;;10.00;99.90;;;;;;4989561;28;20085;-60
2022/04/14 06:15:44;;;;;;;45.55;31.80;;;10.10;99.90;;;;;;4990981;28;20081;-60
2022/04/14 06:18:10;;;;;;;45.95;32.80;;;10.20;99.90;;;;;;4980663;28;20053;-60
2022/04/14 06:20:36;;;;;;;46.10;31.73;;;10.20;99.90;;;;;;4986628;28;20042;-58
2022/04/14 06:23:02;;;;;;;49.90;32.60;;;10.30;99.90;;;;;;4977929;28;22047;-59
2022/04/14 06:25:28;;;;;;;41.78;29.88;;;10.30;99.90;;;;;;4981697;28;20274;-60
2022/04/14 06:27:57;;;;;;;52.80;31.92;;;10.40;99.90;;;;;;4987079;28;20038;-58
2022/04/14 06:30:23;;;;;;;50.53;31.85;;;10.40;99.90;;;;;;4984821;28;20044;-59
2022/04/14 06:33:00;;;;;;;40.55;30.13;;;10.50;99.90;;;;;;4994956;28;20049;-59
2022/04/14 06:35:26;;;;;;;38.72;27.77;;;10.50;99.90;;;;;;4984925;28;20531;-59
2022/04/14 06:37:52;;;;;;;37.72;28.67;;;10.60;99.90;;;;;;4988647;28;20045;-59
2022/04/14 06:40:20;;;;;;;41.42;28.50;;;10.70;99.90;;;;;;4989642;28;20961;-60
2022/04/14 06:42:46;;;;;;;37.00;26.38;;;10.70;99.90;;;;;;4991073;28;20048;-60
2022/04/14 06:45:12;;;;;;;37.55;27.48;;;10.70;99.90;;;;;;4965772;28;20088;-59
2022/04/14 06:47:38;;;;;;;36.67;26.63;;;10.80;99.90;;;;;;4988593;28;20030;-60
2022/04/14 06:50:04;;;;;;;35.13;25.85;;;10.80;99.90;;;;;;4985915;28;20134;-59
2022/04/14 06:52:29;;;;;;;39.17;25.48;;;10.90;99.90;;;;;;4993342;28;21381;-59
2022/04/14 06:54:55;;;;;;;37.05;25.17;;;10.90;99.90;;;;;;4998414;28;20033;-59
2022/04/14 06:57:21;;;;;;;35.65;24.85;;;11.00;99.90;;;;;;4991596;28;20049;-58
2022/04/14 06:59:47;;;;;;;33.95;24.30;;;11.00;99.90;;;;;;4996594;28;20418;-59
2022/04/14 07:02:12;;;;;;;39.05;23.92;;;11.10;99.90;;;;;;4993007;28;20452;-57
2022/04/14 07:04:38;;;;;;;31.05;23.75;;;11.30;99.90;;;;;;4990446;28;20224;-59
2022/04/14 07:07:04;;;;;;;33.75;24.27;;;11.40;99.90;;;;;;4985812;28;20468;-58
2022/04/14 07:09:32;;;;;;;37.53;27.58;;;11.50;99.90;;;;;;4989107;28;20046;-59
2022/04/14 07:12:01;;;;;;;37.40;27.20;;;11.60;99.90;;;;;;4998212;28;20057;-59
2022/04/14 07:14:28;;;;;;;36.97;27.10;;;11.70;99.90;;;;;;4993031;28;20056;-60
2022/04/14 07:16:58;;;;;;;36.22;26.73;;;11.80;99.90;;;;;;4994184;28;20042;-60
2022/04/14 07:19:24;;;;;;;35.47;24.58;;;11.90;99.90;;;;;;4975738;28;20061;-60
2022/04/14 07:21:50;;;;;;;35.40;24.88;;;12.00;99.90;;;;;;4967382;28;20046;-60
2022/04/14 07:24:16;;;;;;;34.25;25.70;;;12.10;99.90;;;;;;4990986;28;21855;-60
2022/04/14 07:26:43;;;;;;;32.00;23.98;;;12.20;99.90;;;;;;4986162;28;20558;-59
2022/04/14 07:29:08;;;;;;;30.92;22.83;;;12.30;99.90;;;;;;4983788;28;20049;-59
2022/04/14 07:31:36;;;;;;;28.83;23.40;;;12.40;99.90;;;;;;4982036;28;20296;-60
2022/04/14 07:34:03;;;;;;;30.38;22.00;;;12.60;99.90;;;;;;4973271;28;20496;-58
2022/04/14 07:36:28;;;;;;;30.10;22.40;;;12.60;99.90;;;;;;4989803;28;20042;-60
2022/04/14 07:38:54;;;;;;;29.00;22.52;;;12.70;99.90;;;;;;4996931;28;20048;-59
2022/04/14 07:41:20;;;;;;;28.67;21.80;;;12.80;99.90;;;;;;5002682;28;20044;-59
2022/04/14 07:43:46;;;;;;;28.20;21.45;;;12.80;99.90;;;;;;4988363;28;20655;-60
2022/04/14 07:46:12;;;;;;;29.77;20.90;;;12.90;99.90;;;;;;4986201;28;20104;-60
2022/04/14 07:48:38;;;;;;;29.23;23.00;;;12.90;99.90;;;;;;4989176;28;20476;-60
2022/04/14 07:51:04;;;;;;;26.05;20.83;;;13.10;99.90;;;;;;4985841;28;20556;-59
2022/04/14 07:53:30;;;;;;;28.92;21.38;;;13.20;99.90;;;;;;4997354;28;20045;-60
2022/04/14 07:55:56;;;;;;;28.02;20.35;;;13.40;99.90;;;;;;4980330;28;20042;-59
2022/04/14 07:58:22;;;;;;;27.48;20.55;;;13.40;99.90;;;;;;4981164;28;20042;-58
2022/04/14 08:00:50;;;;;;;28.23;20.42;;;13.50;99.90;;;;;;4983351;28;20423;-58
2022/04/14 08:03:17;;;;;;;28.63;21.13;;;13.60;99.90;;;;;;4982896;28;20496;-60
2022/04/14 08:05:44;;;;;;;27.65;19.02;;;13.70;99.90;;;;;;4988031;28;20029;-58
2022/04/14 08:08:14;;;;;;;22.98;18.73;;;13.60;99.90;;;;;;4993180;28;20072;-60
2022/04/14 08:10:41;;;;;;;27.23;19.27;;;13.80;99.90;;;;;;4987533;28;20389;-59
2022/04/14 08:13:07;;;;;;;28.58;20.45;;;13.90;99.90;;;;;;4987254;28;20053;-59
2022/04/14 08:15:33;;;;;;;25.85;19.08;;;13.80;99.90;;;;;;4989947;28;20029;-59
2022/04/14 08:17:59;;;;;;;26.92;20.63;;;13.90;99.90;;;;;;4993068;28;20046;-60
2022/04/14 08:20:27;;;;;;;23.55;18.63;;;14.10;99.90;;;;;;4993559;28;20056;-59
2022/04/14 08:22:54;;;;;;;28.40;18.17;;;14.20;99.90;;;;;;4965529;28;20042;-59
2022/04/14 08:25:22;;;;;;;25.48;17.10;;;14.30;99.90;;;;;;4982774;28;20049;-64
2022/04/14 08:27:49;;;;;;;21.45;16.73;;;14.40;99.90;;;;;;4968173;28;20050;-59
2022/04/14 08:30:16;;;;;;;24.27;17.00;;;14.50;99.90;;;;;;4978354;28;22475;-59
2022/04/14 08:32:43;;;;;;;26.73;16.88;;;14.40;99.90;;;;;;4969048;28;20045;-60
2022/04/14 08:35:10;;;;;;;23.95;17.33;;;14.50;99.90;;;;;;4985202;28;20405;-60
2022/04/14 08:37:36;;;;;;;27.33;17.17;;;14.50;99.90;;;;;;4995255;28;20042;-57
2022/04/14 08:40:08;;;;;;;22.75;15.25;;;14.50;99.90;;;;;;4985268;28;20076;-60
2022/04/14 08:42:41;;;;;;;20.05;15.05;;;14.70;99.90;;;;;;4980212;28;20070;-60
2022/04/14 08:45:10;;;;;;;17.98;13.23;;;14.90;99.90;;;;;;4981250;28;20116;-61
2022/04/14 08:47:39;;;;;;;16.02;12.73;;;14.90;99.90;;;;;;4978416;28;20038;-60
2022/04/14 08:50:07;;;;;;;25.27;14.55;;;15.00;99.90;;;;;;4976819;28;20044;-60
2022/04/14 08:52:34;;;;;;;19.90;13.55;;;15.10;99.90;;;;;;4983064;28;20133;-60
2022/04/14 08:55:04;;;;;;;19.05;13.30;;;15.00;99.90;;;;;;4981229;28;20046;-61
2022/04/14 08:57:31;;;;;;;19.75;13.38;;;15.00;99.90;;;;;;4991671;28;20436;-61
2022/04/14 08:59:59;;;;;;;22.42;12.88;;;15.20;99.90;;;;;;4982373;28;20411;-60
2022/04/14 09:02:25;;;;;;;24.08;12.70;;;15.40;99.90;;;;;;4977221;28;20316;-61
2022/04/14 09:04:51;;;;;;;17.85;12.82;;;15.30;99.90;;;;;;4978401;28;20484;-60
2022/04/14 09:07:18;;;;;;;20.75;12.88;;;15.30;99.90;;;;;;4988738;28;20050;-60
2022/04/14 09:09:44;;;;;;;17.27;12.07;;;15.40;99.90;;;;;;4989307;28;20500;-61
2022/04/14 09:12:11;;;;;;;18.60;12.10;;;15.40;99.90;;;;;;4980551;28;20046;-62
2022/04/14 09:14:37;;;;;;;380.00;43.30;;;15.40;99.90;;;;;;4967316;28;20049;-62
2022/04/14 09:17:04;;;;;;;210.85;25.42;;;15.50;99.90;;;;;;4971156;28;20093;-62
2022/04/14 09:19:31;;;;;;;109.38;18.85;;;15.70;99.90;;;;;;4975729;28;20096;-60
2022/04/14 09:22:01;;;;;;;85.90;14.63;;;15.80;99.90;;;;;;4985378;28;20037;-61
2022/04/14 09:24:39;;;;;;;40.75;12.48;;;16.10;99.90;;;;;;4983858;28;20061;-59
2022/04/14 09:27:06;;;;;;;18.85;8.40;;;16.20;99.90;;;;;;4990726;28;20042;-59
2022/04/14 09:29:32;;;;;;;16.90;8.05;;;16.20;99.90;;;;;;4979748;28;20085;-60
2022/04/14 09:31:58;;;;;;;20.65;8.60;;;16.30;99.90;;;;;;4996937;28;20049;-62
2022/04/14 09:34:51;;;;;;;13.00;6.82;;;16.40;99.90;;;;;;4976593;28;20549;-59
2022/04/14 09:37:17;;;;;;;10.55;6.13;;;16.50;99.90;;;;;;4993013;28;20411;-60
2022/04/14 09:40:08;;;;;;;11.85;6.70;;;16.30;99.90;;;;;;4993013;28;20072;-61
2022/04/14 09:42:43;;;;;;;8.60;5.63;;;16.20;99.90;;;;;;4985655;28;20666;-64
2022/04/14 09:45:29;;;;;;;7.28;4.78;;;16.50;99.90;;;;;;4994252;28;20045;-61
2022/04/14 09:48:04;;;;;;;12.45;5.80;;;16.70;99.90;;;;;;4989140;28;20045;-60
2022/04/14 09:50:46;;;;;;;8.27;4.78;;;16.90;99.90;;;;;;4999671;28;20045;-60
2022/04/14 09:53:14;;;;;;;7.70;4.30;;;16.90;99.00;;;;;;4995068;28;20053;-60
2022/04/14 09:55:50;;;;;;;8.00;4.53;;;16.80;98.50;;;;;;4991935;28;20045;-60
2022/04/14 09:58:20;;;;;;;8.73;3.33;;;16.80;99.20;;;;;;4982233;28;20515;-61
2022/04/14 10:00:54;;;;;;;8.40;3.70;;;16.90;98.70;;;;;;4985805;28;20531;-62
2022/04/14 10:03:29;;;;;;;6.88;3.78;;;16.90;97.60;;;;;;4987463;28;20046;-61
2022/04/14 10:05:57;;;;;;;8.10;4.47;;;17.00;97.30;;;;;;4995109;28;20068;-61
2022/04/14 10:08:24;;;;;;;8.05;5.15;;;17.20;98.20;;;;;;5005814;28;20037;-61
2022/04/14 10:11:07;;;;;;;7.22;4.75;;;17.30;96.90;;;;;;4997186;28;20104;-61
2022/04/14 10:13:37;;;;;;;6.45;3.13;;;17.20;97.70;;;;;;5001789;28;20058;-61
2022/04/14 10:16:04;;;;;;;6.93;2.38;;;16.90;95.60;;;;;;4999704;28;20536;-62
2022/04/14 10:18:31;;;;;;;5.38;2.58;;;16.40;94.40;;;;;;5002536;28;20386;-61
2022/04/14 10:20:57;;;;;;;4.57;2.65;;;16.20;95.10;;;;;;4997228;28;20037;-62
2022/04/14 10:23:25;;;;;;;6.10;2.90;;;16.50;96.30;;;;;;5002370;28;20038;-62
2022/04/14 10:25:53;;;;;;;8.65;4.00;;;16.50;95.30;;;;;;4996122;28;20044;-61
2022/04/14 10:28:20;;;;;;;6.43;4.18;;;16.70;96.40;;;;;;4997111;28;20042;-61
2022/04/14 10:30:56;;;;;;;7.85;4.53;;;16.80;96.40;;;;;;4997108;28;20053;-62
2022/04/14 10:33:23;;;;;;;7.45;4.97;;;16.80;95.70;;;;;;4999883;28;20034;-61
2022/04/14 10:35:50;;;;;;;8.65;4.72;;;16.80;96.30;;;;;;5001083;28;20061;-61
2022/04/14 10:38:22;;;;;;;6.63;3.20;;;16.80;95.60;;;;;;5002229;28;20485;-62
2022/04/14 10:40:55;;;;;;;7.63;4.60;;;17.00;95.20;;;;;;5001942;28;20030;-61
2022/04/14 10:43:23;;;;;;;6.65;4.32;;;17.00;95.00;;;;;;4999305;28;20515;-62
2022/04/14 10:45:57;;;;;;;5.63;3.55;;;16.90;95.60;;;;;;5006868;28;20045;-61
2022/04/14 10:48:35;;;;;;;7.97;4.22;;;17.10;95.30;;;;;;4998816;28;20030;-61
2022/04/14 10:51:16;;;;;;;8.13;4.22;;;16.80;93.50;;;;;;4980437;28;20120;-61
2022/04/14 10:53:52;;;;;;;7.22;4.50;;;16.90;95.10;;;;;;4982893;28;20512;-62
2022/04/14 10:56:49;;;;;;;9.13;4.75;;;16.70;94.20;;;;;;4988567;28;20100;-61
2022/04/14 10:59:41;;;;;;;6.03;4.38;;;16.70;94.80;;;;;;4976800;28;20520;-62
2022/04/14 11:02:07;;;;;;;8.07;5.03;;;16.90;95.80;;;;;;4995136;28;20043;-61
2022/04/14 11:04:42;;;;;;;8.30;5.10;;;17.20;94.40;;;;;;4997907;28;20414;-61
2022/04/14 11:07:11;;;;;;;10.10;4.97;;;16.80;94.00;;;;;;4998964;28;20096;-65
2022/04/14 11:09:44;;;;;;;9.30;6.38;;;16.70;95.40;;;;;;4993235;28;20042;-60
2022/04/14 11:12:23;;;;;;;10.10;6.35;;;17.00;95.70;;;;;;4998841;28;20527;-59
2022/04/14 11:15:07;;;;;;;10.30;5.85;;;16.90;95.60;;;;;;4993264;28;20334;-59
2022/04/14 11:20:30;;;;;;;8.00;6.50;;;17.20;96.10;;;;;;4975845;28;20039;-60
2022/04/14 11:23:12;;;;;;;8.23;5.45;;;17.00;95.30;;;;;;4993625;28;20377;-60
2022/04/14 11:25:49;;;;;;;8.65;5.30;;;17.00;94.70;;;;;;4997257;28;20031;-60
2022/04/14 11:28:30;;;;;;;7.90;4.93;;;16.90;95.30;;;;;;4982053;28;20038;-60
2022/04/14 11:31:17;;;;;;;7.50;4.50;;;16.90;95.40;;;;;;4992390;28;20396;-61
2022/04/14 11:33:45;;;;;;;6.15;3.78;;;17.00;95.30;;;;;;4998599;28;20412;-60
2022/04/14 11:36:16;;;;;;;7.88;3.80;;;16.60;94.90;;;;;;4996420;28;20453;-59
2022/04/14 11:38:59;;;;;;;6.38;3.78;;;16.60;95.30;;;;;;4999657;28;20485;-59
2022/04/14 11:41:46;;;;;;;11.13;4.75;;;16.80;95.30;;;;;;4997633;28;20061;-58
2022/04/14 11:44:27;;;;;;;7.80;4.15;;;17.00;95.00;;;;;;5002476;28;20042;-59
2022/04/14 11:46:54;;;;;;;5.80;3.92;;;16.90;94.10;;;;;;5002873;28;20069;-58
2022/04/14 11:49:23;;;;;;;7.78;4.55;;;16.80;94.60;;;;;;4990104;28;20056;-58
2022/04/14 11:51:59;;;;;;;7.97;4.43;;;16.70;94.30;;;;;;4999235;28;20042;-58
2022/04/14 11:54:31;;;;;;;8.40;4.13;;;16.50;94.20;;;;;;4995027;28;20085;-59
2022/04/14 11:56:59;;;;;;;7.82;4.72;;;16.50;95.20;;;;;;5001002;28;20087;-58
2022/04/14 11:59:34;;;;;;;10.50;5.15;;;16.90;95.10;;;;;;4997168;28;20050;-57
2022/04/14 12:02:13;;;;;;;15.20;4.75;;;17.00;94.30;;;;;;4999712;28;20488;-59
2022/04/14 12:04:43;;;;;;;10.52;5.10;;;17.10;94.60;;;;;;5002542;28;20092;-58
2022/04/14 12:07:08;;;;;;;9.30;5.50;;;17.00;93.60;;;;;;4998714;28;20042;-58
2022/04/14 12:09:35;;;;;;;9.30;4.60;;;16.90;94.00;;;;;;5000128;28;20060;-59
2022/04/14 12:12:18;;;;;;;10.15;6.35;;;17.00;94.70;;;;;;4999592;28;20128;-57
2022/04/14 12:14:49;;;;;;;8.75;5.85;;;17.10;94.30;;;;;;4999835;28;20511;-60
2022/04/14 12:17:23;;;;;;;9.50;5.93;;;17.30;94.70;;;;;;4999657;28;20097;-60
2022/04/14 12:19:57;;;;;;;8.80;5.72;;;17.20;94.50;;;;;;4994778;28;20056;-59
2022/04/14 12:22:24;;;;;;;10.07;5.40;;;17.30;94.40;;;;;;4998938;28;20030;-59
2022/04/14 12:24:53;;;;;;;9.35;5.00;;;16.90;93.90;;;;;;4990159;28;20116;-59
2022/04/14 12:27:23;;;;;;;9.93;5.80;;;16.60;94.60;;;;;;4989792;28;20038;-60
2022/04/14 12:29:53;;;;;;;8.18;4.65;;;16.70;94.70;;;;;;4974667;28;20049;-58
2022/04/14 12:32:24;;;;;;;8.55;4.50;;;16.90;94.60;;;;;;4983248;28;20049;-58
2022/04/14 12:34:50;;;;;;;10.95;4.88;;;17.20;94.10;;;;;;4996062;28;20052;-60
2022/04/14 12:37:18;;;;;;;11.60;5.32;;;17.10;94.20;;;;;;5000015;28;20041;-59
2022/04/14 12:40:21;;;;;;;8.68;3.92;;;17.10;93.90;;;;;;4983900;28;20403;-59